createdAt,value
2023-03-03T00:01:32.716Z,101450.77
2023-03-03T00:04:01.275Z,101451.96
2023-03-03T00:06:30.551Z,101453.42
2023-03-03T00:08:58.688Z,101449.96
2023-03-03T00:11:27.069Z,101446.14
2023-03-03T00:13:56.826Z,101448.38
2023-03-03T00:16:28.090Z,101450.48
2023-03-03T00:18:57.480Z,101449.52
2023-03-03T00:21:31.856Z,101451.02
2023-03-03T00:24:12.881Z,101449.84
2023-03-03T00:27:02.367Z,101447.08
2023-03-03T00:29:35.918Z,101444.15
2023-03-03T00:32:21.438Z,101442.83
2023-03-03T00:34:50.952Z,101449.52
2023-03-03T00:37:35.872Z,101449.69
2023-03-03T00:40:24.154Z,101445.52
2023-03-03T00:42:55.268Z,101447.92
2023-03-03T00:45:34.636Z,101443.45
2023-03-03T00:48:19.451Z,101438.95
2023-03-03T00:50:47.626Z,101443.52
2023-03-03T00:53:17.608Z,101439.06
2023-03-03T00:55:47.651Z,101433.27
2023-03-03T00:58:15.934Z,101427.04
2023-03-03T01:00:45.109Z,101424.94
2023-03-03T01:03:21.713Z,101429.64
2023-03-03T01:05:51.021Z,101440.90
2023-03-03T01:08:19.709Z,101438.52
2023-03-03T01:11:00.548Z,101437.35
2023-03-03T01:13:32.836Z,101434.87
2023-03-03T01:16:02.428Z,101425.23
2023-03-03T01:18:30.565Z,101416.45
2023-03-03T01:20:58.637Z,101415.15
2023-03-03T01:23:26.640Z,101413.30
2023-03-03T01:25:54.665Z,101404.54
2023-03-03T01:28:22.686Z,101405.07
2023-03-03T01:30:51.100Z,101404.80
2023-03-03T01:33:19.081Z,101404.92
2023-03-03T01:35:48.379Z,101415.01
2023-03-03T01:38:16.439Z,101406.48
2023-03-03T01:40:53.288Z,101407.40
2023-03-03T01:43:22.157Z,101405.31
2023-03-03T01:45:50.143Z,101401.06
2023-03-03T01:48:24.672Z,101395.02
2023-03-03T01:50:59.806Z,101403.04
2023-03-03T01:54:08.157Z,101402.06
2023-03-03T01:56:36.216Z,101393.80
2023-03-03T01:59:10.593Z,101393.90
2023-03-03T02:01:41.292Z,101396.24
2023-03-03T02:04:10.115Z,101388.63
2023-03-03T02:06:44.675Z,101391.58
2023-03-03T02:09:34.443Z,101391.86
2023-03-03T02:12:08.288Z,101393.13
2023-03-03T02:14:36.198Z,101388.30
2023-03-03T02:17:04.380Z,101379.42
2023-03-03T02:19:56.183Z,101384.92
2023-03-03T02:22:53.378Z,101385.52
2023-03-03T02:25:34.520Z,101396.36
2023-03-03T02:28:02.929Z,101389.73
2023-03-03T02:30:30.925Z,101396.87
2023-03-03T02:32:58.807Z,101394.89
2023-03-03T02:35:36.332Z,101402.51
2023-03-03T02:38:25.781Z,101411.55
2023-03-03T02:41:20.510Z,101416.39
2023-03-03T02:44:03.576Z,101414.66
2023-03-03T02:46:37.811Z,101407.38
2023-03-03T02:49:08.795Z,101403.69
2023-03-03T02:51:37.757Z,101414.11
2023-03-03T02:54:06.963Z,101418.46
2023-03-03T02:56:36.178Z,101414.14
2023-03-03T02:59:06.110Z,101419.17
2023-03-03T03:01:37.332Z,101418.23
2023-03-03T03:04:27.960Z,101420.94
2023-03-03T03:06:57.130Z,101414.73
2023-03-03T03:09:28.334Z,101410.84
2023-03-03T03:11:56.383Z,101419.12
2023-03-03T03:14:26.818Z,101411.34
2023-03-03T03:16:55.331Z,101413.29
2023-03-03T03:19:23.452Z,101418.20
2023-03-03T03:21:52.346Z,101425.24
2023-03-03T03:24:21.608Z,101433.36
2023-03-03T03:26:54.871Z,101438.55
2023-03-03T03:29:23.386Z,101427.61
2023-03-03T03:31:51.422Z,101417.27
2023-03-03T03:34:19.441Z,101422.21
2023-03-03T03:36:47.420Z,101416.27
2023-03-03T03:39:16.250Z,101408.17
2023-03-03T03:41:46.806Z,101398.99
2023-03-03T03:44:14.735Z,101396.66
2023-03-03T03:46:42.828Z,101398.61
2023-03-03T03:49:11.681Z,101393.27
2023-03-03T03:51:41.439Z,101379.00
2023-03-03T03:54:10.774Z,101376.94
2023-03-03T03:56:39.145Z,101385.77
2023-03-03T03:59:08.429Z,101386.86
2023-03-03T04:01:36.659Z,101387.08
2023-03-03T04:04:05.372Z,101388.86
2023-03-03T04:06:33.880Z,101383.74
2023-03-03T04:09:02.563Z,101387.67
2023-03-03T04:11:31.148Z,101372.67
2023-03-03T04:13:59.035Z,101383.20
2023-03-03T04:16:27.971Z,101383.16
2023-03-03T04:18:56.002Z,101383.52
2023-03-03T04:21:24.040Z,101382.63
2023-03-03T04:23:53.370Z,101372.43
2023-03-03T04:26:21.577Z,101373.88
2023-03-03T04:28:49.949Z,101367.02
2023-03-03T04:31:20.010Z,101361.89
2023-03-03T04:33:48.423Z,101361.73
2023-03-03T04:36:16.422Z,101362.17
2023-03-03T04:38:44.992Z,101366.58
2023-03-03T04:41:13.568Z,101365.79
2023-03-03T04:43:42.655Z,101366.82
2023-03-03T04:46:12.030Z,101368.57
2023-03-03T04:48:40.288Z,101363.07
2023-03-03T04:51:08.359Z,101366.35
2023-03-03T04:53:38.418Z,101368.27
2023-03-03T04:56:07.504Z,101371.22
2023-03-03T04:58:36.138Z,101370.63
2023-03-03T05:01:04.544Z,101366.34
2023-03-03T05:03:33.020Z,101360.29
2023-03-03T05:06:01.320Z,101363.96
2023-03-03T05:08:29.318Z,101364.67
2023-03-03T05:10:59.829Z,101369.36
2023-03-03T05:13:28.931Z,101366.01
2023-03-03T05:15:58.262Z,101368.96
2023-03-03T05:18:28.080Z,101361.48
2023-03-03T05:20:56.244Z,101356.83
2023-03-03T05:23:24.630Z,101355.27
2023-03-03T05:25:52.548Z,101355.36
2023-03-03T05:28:20.711Z,101355.98
2023-03-03T05:30:49.248Z,101362.95
2023-03-03T05:33:17.755Z,101356.98
2023-03-03T05:35:45.868Z,101353.79
2023-03-03T05:38:13.814Z,101358.64
2023-03-03T05:40:41.647Z,101365.05
2023-03-03T05:43:09.576Z,101369.36
2023-03-03T05:45:37.622Z,101380.16
2023-03-03T05:48:05.886Z,101376.23
2023-03-03T05:50:33.824Z,101370.83
2023-03-03T05:53:01.818Z,101373.83
2023-03-03T05:55:29.782Z,101393.60
2023-03-03T05:57:57.660Z,101400.97
2023-03-03T06:00:25.705Z,101407.34
2023-03-03T06:02:53.930Z,101409.46
2023-03-03T06:05:22.424Z,101419.41
2023-03-03T06:07:50.430Z,101427.17
2023-03-03T06:10:18.597Z,101431.49
2023-03-03T06:12:47.324Z,101429.58
2023-03-03T06:15:15.417Z,101424.73
2023-03-03T06:17:43.255Z,101410.14
2023-03-03T06:20:11.755Z,101398.35
2023-03-03T06:22:40.004Z,101394.85
2023-03-03T06:25:08.303Z,101394.05
2023-03-03T06:27:36.317Z,101394.04
2023-03-03T06:30:04.959Z,101401.87
2023-03-03T06:32:32.867Z,101409.21
2023-03-03T06:35:01.003Z,101412.40
2023-03-03T06:37:28.904Z,101413.30
2023-03-03T06:39:56.730Z,101413.71
2023-03-03T06:42:24.942Z,101412.71
2023-03-03T06:44:52.895Z,101420.64
2023-03-03T06:47:20.975Z,101428.95
2023-03-03T06:49:48.907Z,101421.85
2023-03-03T06:52:24.459Z,101417.36
2023-03-03T06:55:02.371Z,101409.39
2023-03-03T06:57:33.377Z,101406.61
2023-03-03T07:00:25.097Z,101403.64
2023-03-03T07:03:08.825Z,101405.95
2023-03-03T07:05:37.013Z,101410.85
2023-03-03T07:08:13.505Z,101408.13
2023-03-03T07:10:41.782Z,101415.15
2023-03-03T07:13:27.708Z,101419.20
2023-03-03T07:15:59.404Z,101419.77
2023-03-03T07:18:36.246Z,101420.48
2023-03-03T07:21:17.427Z,101425.45
2023-03-03T07:23:47.199Z,101422.27
2023-03-03T07:26:42.990Z,101425.02
2023-03-03T07:29:28.618Z,101428.86
2023-03-03T07:31:57.971Z,101435.88
2023-03-03T07:34:40.826Z,101437.21
2023-03-03T07:37:32.092Z,101443.73
2023-03-03T07:40:01.346Z,101443.10
2023-03-03T07:42:39.699Z,101439.08
2023-03-03T07:45:30.216Z,101436.15
2023-03-03T07:48:13.479Z,101438.07
2023-03-03T07:50:41.522Z,101440.80
2023-03-03T07:53:24.544Z,101443.36
2023-03-03T07:55:52.763Z,101452.86
2023-03-03T07:58:25.076Z,101451.51
2023-03-03T08:00:52.972Z,101454.33
2023-03-03T08:03:21.393Z,101451.41
2023-03-03T08:05:51.417Z,101448.02
2023-03-03T08:08:31.252Z,101448.75
2023-03-03T08:11:01.295Z,101452.33
2023-03-03T08:13:29.082Z,101449.47
2023-03-03T08:16:04.767Z,101448.91
2023-03-03T08:19:02.423Z,101453.05
2023-03-03T08:21:32.066Z,101453.63
2023-03-03T08:23:59.996Z,101459.42
2023-03-03T08:26:28.045Z,101468.66
2023-03-03T08:28:55.954Z,101466.94
2023-03-03T08:31:39.722Z,101463.20
2023-03-03T08:34:08.843Z,101465.83
2023-03-03T08:36:36.936Z,101466.56
2023-03-03T08:39:05.466Z,101467.50
2023-03-03T08:41:33.460Z,101466.38
2023-03-03T08:44:01.541Z,101462.34
2023-03-03T08:46:29.667Z,101461.38
2023-03-03T08:48:57.600Z,101462.53
2023-03-03T08:51:26.424Z,101458.75
2023-03-03T08:53:54.564Z,101453.83
2023-03-03T08:56:22.665Z,101456.30
2023-03-03T08:59:01.578Z,101455.69
2023-03-03T09:01:35.020Z,101454.31
2023-03-03T09:04:02.991Z,101451.53
2023-03-03T09:06:31.149Z,101456.13
2023-03-03T09:08:59.225Z,101455.74
2023-03-03T09:11:29.079Z,101452.58
2023-03-03T09:14:10.466Z,101444.45
2023-03-03T09:16:40.940Z,101444.86
2023-03-03T09:19:23.893Z,101445.79
2023-03-03T09:21:56.702Z,101454.31
2023-03-03T09:24:28.570Z,101458.36
2023-03-03T09:26:59.953Z,101458.05
2023-03-03T09:29:31.036Z,101458.73
2023-03-03T09:32:02.562Z,101453.06
2023-03-03T09:34:38.740Z,101457.02
2023-03-03T09:37:33.874Z,101452.33
2023-03-03T09:40:33.089Z,101449.27
2023-03-03T09:43:12.478Z,101449.77
2023-03-03T09:45:57.895Z,101451.77
2023-03-03T09:48:34.120Z,101452.39
2023-03-03T09:51:17.337Z,101450.63
2023-03-03T09:54:00.056Z,101453.66
2023-03-03T09:56:46.709Z,101458.05
2023-03-03T09:59:27.001Z,101463.34
2023-03-03T10:02:31.622Z,101466.32
2023-03-03T10:05:05.779Z,101461.23
2023-03-03T10:07:59.863Z,101460.45
2023-03-03T10:10:49.304Z,101458.52
2023-03-03T10:13:26.537Z,101457.66
2023-03-03T10:16:28.541Z,101459.73
2023-03-03T10:19:09.954Z,101467.68
2023-03-03T10:21:54.820Z,101466.64
2023-03-03T10:24:22.849Z,101467.77
2023-03-03T10:27:15.958Z,101459.63
2023-03-03T10:30:01.676Z,101464.89
2023-03-03T10:32:52.504Z,101465.01
2023-03-03T10:35:28.886Z,101455.89
2023-03-03T10:38:12.139Z,101452.23
2023-03-03T10:41:17.954Z,101452.13
2023-03-03T10:44:03.608Z,101464.98
2023-03-03T10:46:46.438Z,101464.73
2023-03-03T10:49:26.912Z,101464.79
2023-03-03T10:52:16.128Z,101462.20
2023-03-03T10:54:56.115Z,101456.63
2023-03-03T10:57:41.146Z,101450.01
2023-03-03T11:00:17.206Z,101452.09
2023-03-03T11:02:57.636Z,101454.14
2023-03-03T11:05:41.697Z,101452.23
2023-03-03T11:08:17.512Z,101444.31
2023-03-03T11:11:07.544Z,101444.19
2023-03-03T11:13:54.890Z,101437.05
2023-03-03T11:16:53.362Z,101432.59
2023-03-03T11:19:42.561Z,101424.59
2023-03-03T11:22:28.873Z,101418.98
2023-03-03T11:25:19.628Z,101413.55
2023-03-03T11:28:28.077Z,101407.30
2023-03-03T11:31:00.627Z,101405.14
2023-03-03T11:33:45.773Z,101396.95
2023-03-03T11:36:37.049Z,101394.27
2023-03-03T11:39:31.811Z,101395.93
2023-03-03T11:42:23.709Z,101394.50
2023-03-03T11:45:14.330Z,101391.44
2023-03-03T11:48:10.329Z,101398.33
2023-03-03T11:50:53.864Z,101397.46
2023-03-03T11:53:43.828Z,101393.79
2023-03-03T11:56:28.576Z,101394.07
2023-03-03T11:59:13.412Z,101388.27
2023-03-03T12:01:53.434Z,101390.17
2023-03-03T12:04:31.620Z,101388.23
2023-03-03T12:07:23.286Z,101384.48
2023-03-03T12:10:18.059Z,101390.23
2023-03-03T12:13:05.540Z,101386.21
2023-03-03T12:15:45.205Z,101379.92
2023-03-03T12:18:36.185Z,101371.71
2023-03-03T12:21:44.224Z,101372.70
2023-03-03T12:24:44.484Z,101373.84
2023-03-03T12:27:30.529Z,101373.09
2023-03-03T12:30:20.233Z,101368.58
2023-03-03T12:33:00.521Z,101370.95
2023-03-03T12:35:35.140Z,101365.64
2023-03-03T12:38:18.397Z,101367.84
2023-03-03T12:40:57.133Z,101369.17
2023-03-03T12:43:39.820Z,101365.69
2023-03-03T12:46:35.976Z,101369.18
2023-03-03T12:49:05.005Z,101362.20
2023-03-03T12:51:45.258Z,101359.84
2023-03-03T12:54:16.229Z,101358.17
2023-03-03T12:57:09.021Z,101359.16
2023-03-03T12:59:53.113Z,101363.54
2023-03-03T13:02:43.222Z,101364.20
2023-03-03T13:05:24.791Z,101362.38
2023-03-03T13:08:31.422Z,101365.02
2023-03-03T13:11:05.434Z,101360.74
2023-03-03T13:13:40.321Z,101358.52
2023-03-03T13:16:24.156Z,101358.08
2023-03-03T13:19:22.941Z,101361.39
2023-03-03T13:21:53.601Z,101363.32
2023-03-03T13:24:30.525Z,101362.73
2023-03-03T13:27:08.688Z,101364.87
2023-03-03T13:29:55.405Z,101359.90
2023-03-03T13:32:33.191Z,101352.34
2023-03-03T13:35:07.387Z,101346.70
2023-03-03T13:37:46.532Z,101352.63
2023-03-03T13:40:20.099Z,101355.66
2023-03-03T13:43:01.238Z,101356.25
2023-03-03T13:45:42.667Z,101350.18
2023-03-03T13:48:23.160Z,101355.90
2023-03-03T13:50:58.133Z,101353.73
2023-03-03T13:53:50.237Z,101353.74
2023-03-03T13:56:34.635Z,101350.95
2023-03-03T13:59:36.737Z,101350.02
2023-03-03T14:02:49.924Z,101344.78
2023-03-03T14:05:33.473Z,101336.23
2023-03-03T14:08:26.033Z,101332.91
2023-03-03T14:10:53.922Z,101328.84
2023-03-03T14:13:31.732Z,101330.27
2023-03-03T14:16:09.819Z,101325.14
2023-03-03T14:18:48.279Z,101328.20
2023-03-03T14:21:25.058Z,101320.23
2023-03-03T14:24:15.397Z,101317.20
2023-03-03T14:26:55.886Z,101313.95
2023-03-03T14:29:27.333Z,101311.83
2023-03-03T14:32:39.351Z,101307.81
2023-03-03T14:35:20.873Z,101303.60
2023-03-03T14:37:50.559Z,101307.05
2023-03-03T14:40:32.494Z,101308.15
2023-03-03T14:43:02.635Z,101297.44
2023-03-03T14:45:38.507Z,101300.98
2023-03-03T14:48:20.328Z,101303.38
2023-03-03T14:50:48.215Z,101300.62
2023-03-03T14:53:19.163Z,101296.08
2023-03-03T14:55:50.266Z,101292.77
2023-03-03T14:58:32.530Z,101294.23
2023-03-03T15:01:20.980Z,101289.22
2023-03-03T15:04:10.517Z,101291.70
2023-03-03T15:06:55.518Z,101294.38
2023-03-03T15:09:43.683Z,101292.04
2023-03-03T15:12:39.811Z,101284.42
2023-03-03T15:15:11.649Z,101282.54
2023-03-03T15:17:43.972Z,101282.86
2023-03-03T15:20:32.485Z,101280.55
2023-03-03T15:23:40.040Z,101280.14
2023-03-03T15:26:30.175Z,101274.33
2023-03-03T15:29:13.451Z,101275.06
2023-03-03T15:32:07.626Z,101274.38
2023-03-03T15:35:00.206Z,101273.42
2023-03-03T15:38:12.986Z,101267.27
2023-03-03T15:40:48.840Z,101262.86
2023-03-03T15:43:27.266Z,101262.80
2023-03-03T15:46:23.249Z,101259.73
2023-03-03T15:49:16.938Z,101258.10
2023-03-03T15:52:02.694Z,101255.05
2023-03-03T15:54:43.947Z,101258.13
2023-03-03T15:57:28.865Z,101265.38
2023-03-03T16:00:18.351Z,101264.91
2023-03-03T16:03:02.780Z,101261.88
2023-03-03T16:05:54.157Z,101252.30
2023-03-03T16:08:41.338Z,101248.08
2023-03-03T16:11:25.740Z,101253.13
2023-03-03T16:13:59.460Z,101256.02
2023-03-03T16:16:43.421Z,101250.99
2023-03-03T16:19:26.640Z,101257.43
2023-03-03T16:22:12.894Z,101255.50
2023-03-03T16:24:59.618Z,101254.59
2023-03-03T16:27:46.142Z,101255.35
2023-03-03T16:30:26.258Z,101263.58
2023-03-03T16:33:14.459Z,101267.81
2023-03-03T16:36:17.709Z,101263.06
2023-03-03T16:38:53.504Z,101263.49
2023-03-03T16:41:33.751Z,101266.39
2023-03-03T16:44:12.612Z,101268.48
2023-03-03T16:46:48.466Z,101266.98
2023-03-03T16:49:34.746Z,101262.39
2023-03-03T16:52:26.649Z,101259.41
2023-03-03T16:55:02.923Z,101257.68
2023-03-03T16:58:05.797Z,101261.27
2023-03-03T17:00:55.189Z,101260.93
2023-03-03T17:03:31.912Z,101260.62
2023-03-03T17:06:16.127Z,101255.94
2023-03-03T17:09:06.088Z,101254.55
2023-03-03T17:12:12.803Z,101257.34
2023-03-03T17:14:45.956Z,101257.60
2023-03-03T17:17:35.451Z,101257.15
2023-03-03T17:20:06.053Z,101261.91
2023-03-03T17:22:46.442Z,101261.05
2023-03-03T17:25:22.588Z,101266.73
2023-03-03T17:28:25.665Z,101268.80
2023-03-03T17:31:12.335Z,101269.67
2023-03-03T17:33:58.435Z,101265.23
2023-03-03T17:37:07.742Z,101260.09
2023-03-03T17:40:06.225Z,101260.92
2023-03-03T17:42:47.687Z,101266.02
2023-03-03T17:45:17.607Z,101263.52
2023-03-03T17:47:54.893Z,101260.14
2023-03-03T17:50:50.885Z,101258.84
2023-03-03T17:53:43.571Z,101261.17
2023-03-03T17:56:53.278Z,101255.40
2023-03-03T17:59:49.886Z,101254.68
2023-03-03T18:02:45.564Z,101254.45
2023-03-03T18:05:37.672Z,101257.39
2023-03-03T18:08:36.413Z,101258.03
2023-03-03T18:11:23.111Z,101254.13
2023-03-03T18:14:18.905Z,101256.02
2023-03-03T18:17:05.406Z,101253.92
2023-03-03T18:20:05.958Z,101250.04
2023-03-03T18:22:48.520Z,101251.87
2023-03-03T18:25:20.848Z,101248.98
2023-03-03T18:28:01.117Z,101241.98
2023-03-03T18:31:03.008Z,101238.34
2023-03-03T18:34:08.878Z,101237.92
2023-03-03T18:36:52.125Z,101239.20
2023-03-03T18:39:36.272Z,101236.66
2023-03-03T18:42:16.631Z,101237.05
2023-03-03T18:44:45.265Z,101238.71
2023-03-03T18:47:15.058Z,101239.27
2023-03-03T18:50:24.643Z,101234.72
2023-03-03T18:53:34.170Z,101232.81
2023-03-03T18:56:09.641Z,101228.79
2023-03-03T18:58:42.376Z,101225.80
2023-03-03T19:01:32.266Z,101227.67
2023-03-03T19:04:16.808Z,101230.02
2023-03-03T19:06:47.718Z,101225.36
2023-03-03T19:09:39.353Z,101221.95
2023-03-03T19:12:10.992Z,101218.27
2023-03-03T19:14:45.576Z,101218.31
2023-03-03T19:17:16.630Z,101225.19
2023-03-03T19:20:06.085Z,101226.89
2023-03-03T19:22:46.231Z,101221.72
2023-03-03T19:25:28.735Z,101218.02
2023-03-03T19:28:02.088Z,101217.94
2023-03-03T19:31:06.548Z,101216.77
2023-03-03T19:34:02.003Z,101215.72
2023-03-03T19:36:35.550Z,101216.06
2023-03-03T19:39:28.772Z,101214.75
2023-03-03T19:42:04.660Z,101216.41
2023-03-03T19:44:51.226Z,101213.48
2023-03-03T19:47:37.082Z,101224.77
2023-03-03T19:50:21.981Z,101223.36
2023-03-03T19:53:15.020Z,101216.05
2023-03-03T19:56:05.637Z,101217.36
2023-03-03T19:59:13.781Z,101213.53
2023-03-03T20:02:02.045Z,101209.48
2023-03-03T20:04:41.782Z,101204.37
2023-03-03T20:08:00.774Z,101204.07
2023-03-03T20:10:38.604Z,101199.73
2023-03-03T20:13:30.531Z,101202.10
2023-03-03T20:16:17.414Z,101196.56
2023-03-03T20:18:58.799Z,101199.27
2023-03-03T20:21:57.352Z,101191.84
2023-03-03T20:24:43.135Z,101193.60
2023-03-03T20:27:11.137Z,101189.39
2023-03-03T20:30:00.176Z,101187.45
2023-03-03T20:32:43.016Z,101177.72
2023-03-03T20:35:25.659Z,101173.77
2023-03-03T20:37:53.469Z,101168.15
2023-03-03T20:40:38.661Z,101167.58
2023-03-03T20:43:35.101Z,101167.52
2023-03-03T20:46:38.993Z,101163.57
2023-03-03T20:49:09.966Z,101161.95
2023-03-03T20:51:52.554Z,101158.94
2023-03-03T20:54:38.643Z,101154.14
2023-03-03T20:57:18.798Z,101144.80
2023-03-03T20:59:58.952Z,101141.00
2023-03-03T21:02:40.686Z,101135.07
2023-03-03T21:05:17.828Z,101142.53
2023-03-03T21:07:54.768Z,101142.39
2023-03-03T21:10:26.751Z,101137.81
2023-03-03T21:12:56.620Z,101128.05
2023-03-03T21:15:29.463Z,101124.89
2023-03-03T21:17:58.663Z,101127.39
2023-03-03T21:20:31.850Z,101122.80
2023-03-03T21:23:01.696Z,101123.95
2023-03-03T21:25:47.058Z,101119.23
2023-03-03T21:28:34.732Z,101114.09
2023-03-03T21:31:05.752Z,101103.41
2023-03-03T21:33:57.182Z,101098.59
2023-03-03T21:36:45.842Z,101084.59
2023-03-03T21:39:37.044Z,101086.09
2023-03-03T21:42:11.140Z,101080.28
2023-03-03T21:44:52.066Z,101079.45
2023-03-03T21:47:22.466Z,101079.69
2023-03-03T21:49:52.159Z,101074.48
2023-03-03T21:52:22.592Z,101067.91
2023-03-03T21:54:51.971Z,101064.81
2023-03-03T21:57:20.347Z,101060.95
2023-03-03T21:59:48.401Z,101051.96
2023-03-03T22:02:16.765Z,101048.92
2023-03-03T22:04:44.918Z,101046.87
2023-03-03T22:07:13.070Z,101041.58
2023-03-03T22:09:41.122Z,101033.45
2023-03-03T22:12:09.058Z,101029.68
2023-03-03T22:14:37.066Z,101023.22
2023-03-03T22:17:05.096Z,101016.41
2023-03-03T22:19:34.337Z,101007.69
2023-03-03T22:22:02.178Z,100995.14
2023-03-03T22:24:31.108Z,100994.16
2023-03-03T22:26:59.213Z,100982.66
2023-03-03T22:29:27.201Z,100972.87
2023-03-03T22:31:55.202Z,100970.32
2023-03-03T22:34:23.416Z,100970.62
2023-03-03T22:36:51.363Z,100969.73
2023-03-03T22:39:19.231Z,100966.63
2023-03-03T22:41:47.060Z,100959.77
2023-03-03T22:44:21.243Z,100947.09
2023-03-03T22:46:49.236Z,100944.42
2023-03-03T22:49:17.129Z,100942.48
2023-03-03T22:51:45.217Z,100937.80
2023-03-03T22:54:13.050Z,100931.30
2023-03-03T22:56:40.949Z,100926.59
2023-03-03T22:59:08.870Z,100922.88
2023-03-03T23:01:36.899Z,100914.64
2023-03-03T23:04:05.120Z,100912.67
2023-03-03T23:06:33.004Z,100908.89
2023-03-03T23:09:00.842Z,100913.61
2023-03-03T23:11:28.712Z,100908.65
2023-03-03T23:13:56.601Z,100912.31
2023-03-03T23:16:24.479Z,100915.79
2023-03-03T23:18:52.683Z,100916.46
2023-03-03T23:21:20.435Z,100918.98
2023-03-03T23:23:48.538Z,100921.95
2023-03-03T23:26:16.308Z,100918.39
2023-03-03T23:28:44.543Z,100914.83
2023-03-03T23:31:12.559Z,100914.56
2023-03-03T23:33:40.633Z,100914.83
2023-03-03T23:36:08.908Z,100914.11
2023-03-03T23:38:36.857Z,100924.36
2023-03-03T23:41:04.947Z,100920.31
2023-03-03T23:43:33.761Z,100920.73
2023-03-03T23:46:01.742Z,100917.23
2023-03-03T23:48:29.797Z,100913.46
2023-03-03T23:50:57.674Z,100907.55
2023-03-03T23:53:25.632Z,100901.92
2023-03-03T23:55:53.416Z,100902.22
2023-03-03T23:58:21.324Z,100901.75
